Time;durP1;ratioP1;P1;durP2;ratioP2;P2;SDS_P1;SDS_P2;PMS_P1;PMS_P2;Temp;Humidity;BMP_temperature;BMP_pressure;BME280_temperature;BME280_humidity;BME280_pressure;Samples;Min_cycle;Max_cycle;Signal;HPM_P1;HPM_P2
2022/07/31 00:00:28;;;;;;;6.57;4.78;;;;;;;;;;5072079;28;20063;-67
2022/07/31 00:02:56;;;;;;;7.00;4.72;;;;;;;;;;5072156;28;20071;-67
2022/07/31 00:05:23;;;;;;;6.57;4.68;;;;;;;;;;5071840;28;20048;-67
2022/07/31 00:07:51;;;;;;;5.47;4.97;;;;;;;;;;5071847;28;20048;-67
2022/07/31 00:10:18;;;;;;;6.00;5.35;;;;;;;;;;5054404;28;20051;-67
2022/07/31 00:12:45;;;;;;;5.30;4.80;;;;;;;;;;5071957;28;20053;-67
2022/07/31 00:15:11;;;;;;;5.75;5.22;;;;;;;;;;5071850;28;20044;-67
2022/07/31 00:17:39;;;;;;;6.35;4.82;;;;;;;;;;5071892;28;20040;-67
2022/07/31 00:20:06;;;;;;;5.47;5.00;;;;;;;;;;5071109;28;20529;-67
2022/07/31 00:22:34;;;;;;;5.82;5.20;;;;;;;;;;5071621;28;20048;-67
2022/07/31 00:25:00;;;;;;;6.13;5.53;;;;;;;;;;5071741;28;20048;-67
2022/07/31 00:27:27;;;;;;;7.47;5.65;;;;;;;;;;5071869;28;20055;-67
2022/07/31 00:29:54;;;;;;;7.70;5.72;;;;;;;;;;5071896;28;20053;-67
2022/07/31 00:32:20;;;;;;;7.07;5.80;;;;;;;;;;5071716;28;20495;-67
2022/07/31 00:34:49;;;;;;;7.47;5.45;;;;;;;;;;5071580;28;20056;-67
2022/07/31 00:37:15;;;;;;;7.28;6.10;;;;;;;;;;5071815;28;20048;-67
2022/07/31 00:39:42;;;;;;;8.75;5.78;;;;;;;;;;5071756;28;20044;-67
2022/07/31 00:42:16;;;;;;;7.80;5.80;;;;;;;;;;5054174;28;20414;-67
2022/07/31 00:44:43;;;;;;;6.53;5.03;;;;;;;;;;5071626;28;20049;-67
2022/07/31 00:47:13;;;;;;;6.03;5.43;;;;;;;;;;5071852;28;20376;-67
2022/07/31 00:49:40;;;;;;;5.93;4.90;;;;;;;;;;5071321;28;20087;-67
2022/07/31 00:52:07;;;;;;;8.35;5.10;;;;;;;;;;5071717;28;20049;-67
2022/07/31 00:54:34;;;;;;;7.95;5.00;;;;;;;;;;5071635;28;20048;-67
2022/07/31 00:57:01;;;;;;;6.63;4.68;;;;;;;;;;5071375;28;20430;-67
2022/07/31 00:59:29;;;;;;;5.30;4.80;;;;;;;;;;5071168;28;20131;-67
2022/07/31 01:01:56;;;;;;;5.53;4.30;;;;;;;;;;5071401;28;20052;-67
2022/07/31 01:04:25;;;;;;;6.35;4.38;;;;;;;;;;5071581;28;20048;-67
2022/07/31 01:06:52;;;;;;;5.68;4.72;;;;;;;;;;5071521;28;20491;-67
2022/07/31 01:09:19;;;;;;;5.68;4.28;;;;;;;;;;5071362;28;20491;-67
2022/07/31 01:12:20;;;;;;;4.75;4.25;;;;;;;;;;5071381;28;20487;-67
2022/07/31 01:14:51;;;;;;;5.15;4.00;;;;;;;;;;5071547;28;20048;-67
2022/07/31 01:17:20;;;;;;;4.82;4.15;;;;;;;;;;5037610;28;20059;-67
2022/07/31 01:19:48;;;;;;;7.75;4.82;;;;;;;;;;5070647;28;20518;-67
2022/07/31 01:22:42;;;;;;;7.25;4.43;;;;;;;;;;5053711;28;20055;-67
2022/07/31 01:25:19;;;;;;;5.97;4.80;;;;;;;;;;5053420;28;20049;-67
2022/07/31 01:28:23;;;;;;;5.35;4.78;;;;;;;;;;5054105;28;20052;-67
2022/07/31 01:31:08;;;;;;;4.65;4.10;;;;;;;;;;5071488;28;20064;-67
2022/07/31 01:33:59;;;;;;;6.57;4.38;;;;;;;;;;5042703;28;20055;-67
2022/07/31 01:36:25;;;;;;;;;;;;;;;;;;5056514;28;20131;-67
2022/07/31 01:38:53;;;;;;;7.65;5.00;;;;;;;;;;5074636;28;19920;-67
2022/07/31 01:41:22;;;;;;;5.10;4.60;;;;;;;;;;5057172;28;20049;-67
2022/07/31 01:43:49;;;;;;;4.95;4.40;;;;;;;;;;5057302;28;20487;-66
2022/07/31 01:46:16;;;;;;;8.30;4.75;;;;;;;;;;5040613;28;20052;-66
2022/07/31 01:48:42;;;;;;;6.82;4.53;;;;;;;;;;5040240;28;20054;-66
2022/07/31 01:51:09;;;;;;;5.32;4.60;;;;;;;;;;5056969;28;20094;-66
2022/07/31 01:53:37;;;;;;;5.13;4.22;;;;;;;;;;5056800;28;20044;-66
2022/07/31 01:56:05;;;;;;;6.07;4.20;;;;;;;;;;5056791;28;20052;-67
2022/07/31 01:58:34;;;;;;;5.57;4.40;;;;;;;;;;5074354;28;20056;-66
2022/07/31 02:01:02;;;;;;;5.07;4.57;;;;;;;;;;5056782;28;20506;-67
2022/07/31 02:03:29;;;;;;;4.47;4.07;;;;;;;;;;5056952;28;20056;-66
2022/07/31 02:06:15;;;;;;;5.10;4.60;;;;;;;;;;5074397;28;20502;-66
2022/07/31 02:08:44;;;;;;;5.30;4.20;;;;;;;;;;5056322;28;20049;-66
2022/07/31 02:11:12;;;;;;;7.97;4.80;;;;;;;;;;5056933;28;20056;-66
2022/07/31 02:13:39;;;;;;;5.05;4.55;;;;;;;;;;5074294;28;20072;-66
2022/07/31 02:16:06;;;;;;;5.20;4.70;;;;;;;;;;5056353;28;20048;-67
2022/07/31 02:18:33;;;;;;;4.70;4.30;;;;;;;;;;5039523;28;20086;-67
2022/07/31 02:20:59;;;;;;;5.88;4.53;;;;;;;;;;5039750;28;20529;-67
2022/07/31 02:23:26;;;;;;;4.82;4.40;;;;;;;;;;5056204;28;20053;-67
2022/07/31 02:25:53;;;;;;;7.20;4.80;;;;;;;;;;5073976;28;20056;-67
2022/07/31 02:28:19;;;;;;;5.78;5.05;;;;;;;;;;5056122;28;20045;-67
2022/07/31 02:30:47;;;;;;;7.57;5.05;;;;;;;;;;5039661;28;20052;-67
2022/07/31 02:33:19;;;;;;;5.75;4.57;;;;;;;;;;5056262;28;20055;-66
2022/07/31 02:35:48;;;;;;;6.15;5.00;;;;;;;;;;5073563;28;20050;-67
2022/07/31 02:38:19;;;;;;;6.70;5.05;;;;;;;;;;5039632;28;20059;-66
2022/07/31 02:41:07;;;;;;;5.32;4.82;;;;;;;;;;5040663;28;20052;-66
2022/07/31 02:43:34;;;;;;;5.57;5.00;;;;;;;;;;5039513;28;20067;-66
2022/07/31 02:46:00;;;;;;;5.20;4.70;;;;;;;;;;5055351;28;20131;-66
2022/07/31 02:48:27;;;;;;;5.32;4.80;;;;;;;;;;5073315;28;20040;-67
2022/07/31 02:50:54;;;;;;;5.18;4.68;;;;;;;;;;5073700;28;20055;-66
2022/07/31 02:53:21;;;;;;;6.45;5.25;;;;;;;;;;5055621;28;20052;-66
2022/07/31 02:55:48;;;;;;;6.00;5.38;;;;;;;;;;5039142;28;20059;-66
2022/07/31 02:58:14;;;;;;;5.85;4.78;;;;;;;;;;5038999;28;20045;-66
2022/07/31 03:00:41;;;;;;;5.90;4.97;;;;;;;;;;5055349;28;20427;-66
2022/07/31 03:03:08;;;;;;;5.20;4.70;;;;;;;;;;5073148;28;20102;-67
2022/07/31 03:05:34;;;;;;;5.85;5.32;;;;;;;;;;5073237;28;20048;-67
2022/07/31 03:08:01;;;;;;;5.70;5.07;;;;;;;;;;5072949;28;20058;-66
2022/07/31 03:10:28;;;;;;;5.43;4.95;;;;;;;;;;5072997;28;20414;-66
2022/07/31 03:12:55;;;;;;;6.82;6.15;;;;;;;;;;5073031;28;20049;-66
2022/07/31 03:15:23;;;;;;;6.28;5.30;;;;;;;;;;5038614;28;20048;-67
2022/07/31 03:17:50;;;;;;;6.32;5.05;;;;;;;;;;5055373;28;20056;-66
2022/07/31 03:20:17;;;;;;;5.93;5.22;;;;;;;;;;5054641;28;20052;-66
2022/07/31 03:22:44;;;;;;;6.32;5.38;;;;;;;;;;5055031;28;20052;-67
2022/07/31 03:25:10;;;;;;;5.68;5.18;;;;;;;;;;5038605;28;20054;-66
2022/07/31 03:27:49;;;;;;;5.55;4.82;;;;;;;;;;5072514;28;20072;-66
2022/07/31 03:30:25;;;;;;;5.43;4.72;;;;;;;;;;5055709;28;20511;-66
2022/07/31 03:32:52;;;;;;;6.05;5.30;;;;;;;;;;5055364;28;20052;-66
2022/07/31 03:35:19;;;;;;;5.38;4.88;;;;;;;;;;5072529;28;20051;-66
2022/07/31 03:37:46;;;;;;;8.63;5.22;;;;;;;;;;5054783;28;20517;-67
2022/07/31 03:40:13;;;;;;;5.28;4.78;;;;;;;;;;5072261;28;20541;-67
2022/07/31 03:42:39;;;;;;;6.82;5.18;;;;;;;;;;5072683;28;20052;-67
2022/07/31 03:45:06;;;;;;;7.55;5.53;;;;;;;;;;5055005;28;20098;-67
2022/07/31 03:47:33;;;;;;;5.25;4.82;;;;;;;;;;5054617;28;20055;-66
2022/07/31 03:50:00;;;;;;;6.47;5.75;;;;;;;;;;5054341;28;20059;-66
2022/07/31 03:52:27;;;;;;;5.50;5.00;;;;;;;;;;5072398;28;20048;-66
2022/07/31 03:54:54;;;;;;;5.15;4.60;;;;;;;;;;5054550;28;20052;-66
2022/07/31 03:57:21;;;;;;;4.85;4.32;;;;;;;;;;5092808;23;20052;-64
2022/07/31 03:59:56;;;;;;;7.50;5.07;;;;;;;;;;5039833;28;20041;-64
2022/07/31 04:02:27;;;;;;;6.65;4.70;;;;;;;;;;5039827;28;20051;-64
2022/07/31 04:04:54;;;;;;;4.88;4.38;;;;;;;;;;5072839;28;20052;-65
2022/07/31 04:07:21;;;;;;;5.88;5.22;;;;;;;;;;5072801;28;20495;-64
2022/07/31 04:09:47;;;;;;;6.85;5.38;;;;;;;;;;5072965;28;20502;-66
2022/07/31 04:12:14;;;;;;;4.93;4.53;;;;;;;;;;5072953;28;20429;-64
2022/07/31 04:14:41;;;;;;;5.10;4.60;;;;;;;;;;5072819;28;20056;-64
2022/07/31 04:17:08;;;;;;;5.15;4.63;;;;;;;;;;5072520;28;20048;-64
2022/07/31 04:19:35;;;;;;;6.13;4.93;;;;;;;;;;5071663;28;20521;-64
2022/07/31 04:22:02;;;;;;;6.13;5.47;;;;;;;;;;5072986;28;20139;-65
2022/07/31 04:24:29;;;;;;;5.78;5.28;;;;;;;;;;5072700;28;20094;-64
2022/07/31 04:26:56;;;;;;;5.15;4.65;;;;;;;;;;5072683;28;20044;-65
2022/07/31 04:29:23;;;;;;;5.38;4.82;;;;;;;;;;5072343;28;20045;-65
2022/07/31 04:31:50;;;;;;;5.07;4.57;;;;;;;;;;5072753;28;20048;-65
2022/07/31 04:34:16;;;;;;;5.68;5.13;;;;;;;;;;5072310;28;20052;-65
2022/07/31 04:36:43;;;;;;;6.60;5.10;;;;;;;;;;5072421;28;20044;-64
2022/07/31 04:39:10;;;;;;;11.98;5.38;;;;;;;;;;5071965;28;20048;-65
2022/07/31 04:41:36;;;;;;;8.25;5.20;;;;;;;;;;5072274;28;20048;-65
2022/07/31 04:44:03;;;;;;;5.30;4.70;;;;;;;;;;5072371;28;20060;-64
2022/07/31 04:46:30;;;;;;;4.90;4.45;;;;;;;;;;5072179;28;20044;-65
2022/07/31 04:48:56;;;;;;;5.38;4.38;;;;;;;;;;5054094;28;20041;-65
2022/07/31 04:51:23;;;;;;;5.35;4.85;;;;;;;;;;5072223;28;20499;-64
2022/07/31 04:53:50;;;;;;;6.70;4.55;;;;;;;;;;5072634;28;20049;-64
2022/07/31 04:56:33;;;;;;;4.93;4.53;;;;;;;;;;5071977;28;20048;-65
2022/07/31 04:59:01;;;;;;;4.28;3.88;;;;;;;;;;5056666;28;20132;-64
2022/07/31 05:01:28;;;;;;;5.25;4.75;;;;;;;;;;5072210;28;20487;-65
2022/07/31 05:03:55;;;;;;;4.53;4.13;;;;;;;;;;5072411;28;20052;-64
2022/07/31 05:06:21;;;;;;;11.48;5.00;;;;;;;;;;5072254;28;20053;-64
2022/07/31 05:08:48;;;;;;;5.13;4.72;;;;;;;;;;5072367;28;20044;-64
2022/07/31 05:11:24;;;;;;;6.30;4.50;;;;;;;;;;5076197;28;20053;-65
2022/07/31 05:13:52;;;;;;;4.97;4.45;;;;;;;;;;5075693;28;20487;-65
2022/07/31 05:16:19;;;;;;;5.95;4.38;;;;;;;;;;5075684;28;20060;-64
2022/07/31 05:18:46;;;;;;;5.70;4.45;;;;;;;;;;5074980;28;20487;-63
2022/07/31 05:21:13;;;;;;;4.88;4.07;;;;;;;;;;5075765;28;20057;-65
2022/07/31 05:23:41;;;;;;;4.95;4.03;;;;;;;;;;5075853;28;20181;-66
2022/07/31 05:26:08;;;;;;;6.18;4.40;;;;;;;;;;5057914;28;20049;-65
2022/07/31 05:28:36;;;;;;;7.22;4.13;;;;;;;;;;5075297;28;20056;-66
2022/07/31 05:31:04;;;;;;;4.72;4.05;;;;;;;;;;5075579;28;20052;-66
2022/07/31 05:33:31;;;;;;;4.40;3.75;;;;;;;;;;5075445;28;20045;-65
2022/07/31 05:35:58;;;;;;;4.55;3.55;;;;;;;;;;5075428;28;20048;-65
2022/07/31 05:38:25;;;;;;;5.28;3.58;;;;;;;;;;5075179;28;20056;-65
2022/07/31 05:40:52;;;;;;;4.13;3.72;;;;;;;;;;5075297;28;20427;-65
2022/07/31 05:43:19;;;;;;;3.92;3.63;;;;;;;;;;5075381;28;20052;-66
2022/07/31 05:45:46;;;;;;;3.95;3.65;;;;;;;;;;5075464;28;20052;-66
2022/07/31 05:48:13;;;;;;;3.88;3.33;;;;;;;;;;5075147;28;20063;-65
2022/07/31 05:50:42;;;;;;;5.18;4.00;;;;;;;;;;5075329;28;20041;-66
2022/07/31 05:53:13;;;;;;;4.43;3.28;;;;;;;;;;5075024;28;20052;-65
2022/07/31 05:55:41;;;;;;;3.97;3.13;;;;;;;;;;5074812;28;20513;-66
2022/07/31 05:58:07;;;;;;;3.40;3.10;;;;;;;;;;5074723;28;20533;-65
2022/07/31 06:00:40;;;;;;;3.78;3.40;;;;;;;;;;5074676;28;20510;-65
2022/07/31 06:03:07;;;;;;;5.03;3.13;;;;;;;;;;5075028;28;20391;-65
2022/07/31 06:05:34;;;;;;;3.35;3.05;;;;;;;;;;5074884;28;20502;-65
2022/07/31 06:08:01;;;;;;;3.00;2.80;;;;;;;;;;5074795;28;20396;-66
2022/07/31 06:10:27;;;;;;;3.30;3.00;;;;;;;;;;5074366;28;20052;-65
2022/07/31 06:12:54;;;;;;;4.13;3.35;;;;;;;;;;5074715;28;20064;-66
2022/07/31 06:15:21;;;;;;;4.20;2.97;;;;;;;;;;5074309;28;20049;-65
2022/07/31 06:17:47;;;;;;;3.95;2.75;;;;;;;;;;5074481;28;20048;-66
2022/07/31 06:20:14;;;;;;;4.60;3.15;;;;;;;;;;5074187;28;20146;-65
2022/07/31 06:22:44;;;;;;;4.47;3.00;;;;;;;;;;5056005;28;20489;-65
2022/07/31 06:25:11;;;;;;;4.85;2.90;;;;;;;;;;5074238;28;20671;-67
2022/07/31 06:27:40;;;;;;;2.75;2.40;;;;;;;;;;5074142;28;20052;-66
2022/07/31 06:30:08;;;;;;;3.80;3.10;;;;;;;;;;5074054;28;20053;-65
2022/07/31 06:32:35;;;;;;;3.72;2.80;;;;;;;;;;5074654;28;20072;-65
2022/07/31 06:35:03;;;;;;;4.30;2.85;;;;;;;;;;5074347;28;20479;-65
2022/07/31 06:37:29;;;;;;;2.97;2.70;;;;;;;;;;5073910;28;20391;-65
2022/07/31 06:39:56;;;;;;;3.95;2.63;;;;;;;;;;5073831;28;20419;-65
2022/07/31 06:42:24;;;;;;;4.18;3.03;;;;;;;;;;5074082;28;20051;-65
2022/07/31 06:44:51;;;;;;;3.67;2.45;;;;;;;;;;5074139;28;20044;-66
2022/07/31 06:47:21;;;;;;;4.88;2.40;;;;;;;;;;5073699;28;20048;-65
2022/07/31 06:49:48;;;;;;;3.67;2.58;;;;;;;;;;5073495;28;20495;-66
2022/07/31 06:52:15;;;;;;;3.00;2.65;;;;;;;;;;5073901;28;20055;-65
2022/07/31 06:54:42;;;;;;;4.63;2.40;;;;;;;;;;5073554;28;20048;-65
2022/07/31 06:57:10;;;;;;;4.25;2.75;;;;;;;;;;5073529;28;20075;-66
2022/07/31 06:59:37;;;;;;;4.50;3.00;;;;;;;;;;5073154;28;20594;-65
2022/07/31 07:02:06;;;;;;;4.13;3.05;;;;;;;;;;5073552;28;20049;-66
2022/07/31 07:04:33;;;;;;;6.07;2.67;;;;;;;;;;5073410;28;20060;-66
2022/07/31 07:07:20;;;;;;;3.15;2.85;;;;;;;;;;5073369;28;20457;-65
2022/07/31 07:09:47;;;;;;;2.80;2.42;;;;;;;;;;5073238;28;20059;-65
2022/07/31 07:12:14;;;;;;;5.00;2.45;;;;;;;;;;5073487;28;20117;-66
2022/07/31 07:14:43;;;;;;;4.38;2.75;;;;;;;;;;5073334;28;20044;-66
2022/07/31 07:17:09;;;;;;;3.92;2.60;;;;;;;;;;5073250;28;20053;-66
2022/07/31 07:19:39;;;;;;;2.90;2.55;;;;;;;;;;5072652;28;20059;-66
2022/07/31 07:22:06;;;;;;;4.97;2.40;;;;;;;;;;5073015;28;20550;-65
2022/07/31 07:24:33;;;;;;;2.70;2.50;;;;;;;;;;5074719;28;20048;-65
2022/07/31 07:26:59;;;;;;;4.13;2.53;;;;;;;;;;5074032;28;20048;-65
2022/07/31 07:29:26;;;;;;;2.40;2.20;;;;;;;;;;5074089;28;20055;-65
2022/07/31 07:31:53;;;;;;;3.25;2.47;;;;;;;;;;5073706;28;20049;-66
2022/07/31 07:34:19;;;;;;;2.65;2.22;;;;;;;;;;5073319;28;20049;-65
2022/07/31 07:36:46;;;;;;;4.05;2.78;;;;;;;;;;5072828;28;20430;-66
2022/07/31 07:39:13;;;;;;;2.53;2.20;;;;;;;;;;5072878;28;20051;-65
2022/07/31 07:41:40;;;;;;;3.45;2.75;;;;;;;;;;5072588;28;20049;-65
2022/07/31 07:44:07;;;;;;;3.83;2.40;;;;;;;;;;5072419;28;20082;-66
2022/07/31 07:46:34;;;;;;;5.38;2.90;;;;;;;;;;5072644;28;20052;-65
2022/07/31 07:49:01;;;;;;;2.97;2.20;;;;;;;;;;5072580;28;20063;-66
2022/07/31 07:51:28;;;;;;;3.80;2.50;;;;;;;;;;5072804;28;20052;-66
2022/07/31 07:53:55;;;;;;;3.40;2.15;;;;;;;;;;5072558;28;20049;-66
2022/07/31 07:56:22;;;;;;;4.10;2.40;;;;;;;;;;5072127;28;20062;-66
2022/07/31 07:58:49;;;;;;;4.22;2.50;;;;;;;;;;5072384;28;20044;-66
2022/07/31 08:01:15;;;;;;;2.85;2.38;;;;;;;;;;5072274;28;20044;-65
2022/07/31 08:03:42;;;;;;;3.20;2.47;;;;;;;;;;5072577;28;20412;-66
2022/07/31 08:06:20;;;;;;;4.00;2.40;;;;;;;;;;5072089;28;20060;-66
2022/07/31 08:08:46;;;;;;;5.75;2.70;;;;;;;;;;5071952;28;20052;-66
2022/07/31 08:11:13;;;;;;;3.88;1.90;;;;;;;;;;5072612;28;20045;-66
2022/07/31 08:13:44;;;;;;;4.75;2.17;;;;;;;;;;5072544;28;20052;-66
2022/07/31 08:16:17;;;;;;;2.42;2.22;;;;;;;;;;5072413;28;20087;-66
2022/07/31 08:18:44;;;;;;;2.30;2.00;;;;;;;;;;5071887;28;20052;-65
2022/07/31 08:21:11;;;;;;;3.97;2.35;;;;;;;;;;5072346;28;20107;-65
2022/07/31 08:23:37;;;;;;;3.10;2.33;;;;;;;;;;5072366;28;20048;-66
2022/07/31 08:26:07;;;;;;;3.75;2.00;;;;;;;;;;5072137;28;20049;-65
2022/07/31 08:28:34;;;;;;;2.40;2.15;;;;;;;;;;5072014;28;20052;-66
2022/07/31 08:31:02;;;;;;;3.70;2.63;;;;;;;;;;5072141;28;20113;-66
2022/07/31 08:33:29;;;;;;;2.67;2.08;;;;;;;;;;5071829;28;20055;-66
2022/07/31 08:35:55;;;;;;;2.13;1.85;;;;;;;;;;5071302;28;20071;-65
2022/07/31 08:38:22;;;;;;;3.65;2.33;;;;;;;;;;5071740;28;20083;-66
2022/07/31 08:40:49;;;;;;;5.05;2.20;;;;;;;;;;5071994;28;20048;-66
2022/07/31 08:43:15;;;;;;;3.45;2.13;;;;;;;;;;5072055;28;20487;-65
2022/07/31 08:46:02;;;;;;;2.83;2.13;;;;;;;;;;5072115;28;20059;-66
2022/07/31 08:48:31;;;;;;;3.08;2.60;;;;;;;;;;5037369;28;20055;-66
2022/07/31 08:51:01;;;;;;;6.25;2.53;;;;;;;;;;5071911;28;20055;-65
2022/07/31 08:53:28;;;;;;;3.60;2.50;;;;;;;;;;5054195;28;20071;-66
2022/07/31 08:55:54;;;;;;;3.42;2.40;;;;;;;;;;5037293;28;20098;-65
2022/07/31 08:58:23;;;;;;;2.65;2.15;;;;;;;;;;5053945;28;20056;-66
2022/07/31 09:00:50;;;;;;;2.45;2.25;;;;;;;;;;5071914;28;20048;-66
2022/07/31 09:03:17;;;;;;;2.65;1.85;;;;;;;;;;5071546;28;20068;-66
2022/07/31 09:05:44;;;;;;;2.33;2.13;;;;;;;;;;5071871;28;20052;-66
2022/07/31 09:08:10;;;;;;;3.05;2.35;;;;;;;;;;5071806;28;20056;-66
2022/07/31 09:10:40;;;;;;;3.25;1.98;;;;;;;;;;5071933;28;20051;-65
2022/07/31 09:13:16;;;;;;;4.47;3.58;;;;;;;;;;5071593;28;20086;-66
2022/07/31 09:15:43;;;;;;;3.70;2.95;;;;;;;;;;5071436;28;20519;-66
2022/07/31 09:18:18;;;;;;;2.50;2.30;;;;;;;;;;5037214;28;20059;-66
2022/07/31 09:21:02;;;;;;;3.10;2.10;;;;;;;;;;5070821;28;20503;-67
2022/07/31 09:23:29;;;;;;;2.40;1.80;;;;;;;;;;5071551;28;20495;-66
2022/07/31 09:25:58;;;;;;;3.03;1.80;;;;;;;;;;5071793;28;20052;-65
2022/07/31 09:28:40;;;;;;;3.50;1.77;;;;;;;;;;5071571;28;20049;-66
2022/07/31 09:31:08;;;;;;;2.22;1.75;;;;;;;;;;5072123;28;20048;-66
2022/07/31 09:33:38;;;;;;;4.40;1.80;;;;;;;;;;5071767;28;20067;-66
2022/07/31 09:36:11;;;;;;;2.17;1.67;;;;;;;;;;5071417;28;20053;-66
2022/07/31 09:38:40;;;;;;;1.92;1.70;;;;;;;;;;5071249;28;20060;-66
2022/07/31 09:41:15;;;;;;;2.92;1.60;;;;;;;;;;5071427;28;20060;-66
2022/07/31 09:44:03;;;;;;;2.92;1.77;;;;;;;;;;5071202;28;20053;-65
2022/07/31 09:46:45;;;;;;;2.55;2.08;;;;;;;;;;5071524;28;20495;-65
2022/07/31 09:49:13;;;;;;;2.25;1.67;;;;;;;;;;5071526;28;20048;-65
2022/07/31 09:51:44;;;;;;;4.00;1.70;;;;;;;;;;5071442;28;20052;-65
2022/07/31 09:54:23;;;;;;;5.43;1.90;;;;;;;;;;5071268;28;20055;-66
2022/07/31 09:56:50;;;;;;;4.13;1.60;;;;;;;;;;5093016;23;20040;-66
2022/07/31 09:59:17;;;;;;;4.32;2.00;;;;;;;;;;5074096;28;20056;-66
2022/07/31 10:01:47;;;;;;;4.50;1.50;;;;;;;;;;5056856;28;20044;-67
2022/07/31 10:04:19;;;;;;;1.95;1.60;;;;;;;;;;5041000;28;20410;-67
2022/07/31 10:06:46;;;;;;;2.90;1.60;;;;;;;;;;5056597;28;20053;-67
2022/07/31 10:09:13;;;;;;;2.60;1.40;;;;;;;;;;5056450;28;20135;-67
2022/07/31 10:11:40;;;;;;;1.60;1.50;;;;;;;;;;5039997;28;20048;-67
2022/07/31 10:14:09;;;;;;;1.70;1.33;;;;;;;;;;5040130;28;20053;-67
2022/07/31 10:16:35;;;;;;;2.90;1.60;;;;;;;;;;5024227;28;20051;-66
2022/07/31 10:19:09;;;;;;;2.40;1.33;;;;;;;;;;5055812;28;20045;-66
2022/07/31 10:21:40;;;;;;;2.35;1.30;;;;;;;;;;5057482;28;20441;-67
2022/07/31 10:24:07;;;;;;;1.80;1.40;;;;;;;;;;5040426;28;20075;-67
2022/07/31 10:26:33;;;;;;;2.00;1.60;;;;;;;;;;5039504;28;20055;-67
2022/07/31 10:29:20;;;;;;;1.42;1.20;;;;;;;;;;5045297;28;20426;-67
2022/07/31 10:31:46;;;;;;;3.67;1.65;;;;;;;;;;5039626;28;20059;-67
2022/07/31 10:34:14;;;;;;;1.90;1.75;;;;;;;;;;5056154;28;20056;-67
2022/07/31 10:36:41;;;;;;;2.40;1.70;;;;;;;;;;5056088;28;20044;-67
2022/07/31 10:39:23;;;;;;;2.08;1.17;;;;;;;;;;5055919;28;20071;-67
2022/07/31 10:42:05;;;;;;;;;;;;;;;;;;5058076;28;20059;-66
2022/07/31 10:44:44;;;;;;;3.10;1.40;;;;;;;;;;5055940;28;19921;-66
2022/07/31 10:47:12;;;;;;;3.03;1.52;;;;;;;;;;5040044;28;20059;-66
2022/07/31 10:49:47;;;;;;;1.77;1.50;;;;;;;;;;5073171;28;20052;-66
2022/07/31 10:52:30;;;;;;;3.58;1.75;;;;;;;;;;5055784;28;20130;-66
2022/07/31 10:54:58;;;;;;;;;;;;;;;;;;5056249;28;20051;-67
2022/07/31 10:57:31;;;;;;;1.50;1.38;;;;;;;;;;5073250;28;20049;-67
2022/07/31 11:00:16;;;;;;;1.95;1.33;;;;;;;;;;5056396;28;20057;-66
2022/07/31 11:02:43;;;;;;;5.18;1.30;;;;;;;;;;5056152;28;20053;-67
2022/07/31 11:05:22;;;;;;;1.63;1.13;;;;;;;;;;5039439;28;20048;-67
2022/07/31 11:08:07;;;;;;;1.95;1.10;;;;;;;;;;5055880;28;20491;-67
2022/07/31 11:10:34;;;;;;;3.05;1.25;;;;;;;;;;5072986;28;20152;-67
2022/07/31 11:13:06;;;;;;;2.83;1.23;;;;;;;;;;5055498;28;20049;-67
2022/07/31 11:15:36;;;;;;;2.97;1.30;;;;;;;;;;5038902;28;20052;-67
2022/07/31 11:18:19;;;;;;;1.92;1.38;;;;;;;;;;5055047;28;20051;-66
2022/07/31 11:21:00;;;;;;;2.40;1.30;;;;;;;;;;5055105;28;20506;-67
2022/07/31 11:23:38;;;;;;;1.92;1.50;;;;;;;;;;5042467;28;20053;-67
2022/07/31 11:26:21;;;;;;;3.72;1.35;;;;;;;;;;5073248;28;20510;-67
2022/07/31 11:29:06;;;;;;;1.55;1.20;;;;;;;;;;5072477;28;20060;-67
2022/07/31 11:31:53;;;;;;;1.45;1.35;;;;;;;;;;5072837;28;20044;-67
2022/07/31 11:34:19;;;;;;;3.03;1.20;;;;;;;;;;5055073;28;20059;-66
2022/07/31 11:36:46;;;;;;;1.20;1.10;;;;;;;;;;5055124;28;20053;-66
2022/07/31 11:39:17;;;;;;;3.15;1.30;;;;;;;;;;5072438;28;20045;-66
2022/07/31 11:41:43;;;;;;;1.80;1.25;;;;;;;;;;5038361;28;20087;-68
2022/07/31 11:44:11;;;;;;;2.45;1.10;;;;;;;;;;5054767;28;20561;-67
2022/07/31 11:46:37;;;;;;;2.42;1.15;;;;;;;;;;5054686;28;20510;-67
2022/07/31 11:49:04;;;;;;;2.50;1.23;;;;;;;;;;5054660;28;20517;-67
2022/07/31 11:51:31;;;;;;;1.17;1.00;;;;;;;;;;5072440;28;20041;-66
2022/07/31 11:53:59;;;;;;;1.55;1.27;;;;;;;;;;5054542;28;20056;-68
2022/07/31 11:56:26;;;;;;;1.30;1.00;;;;;;;;;;5054548;28;20048;-67
2022/07/31 11:58:54;;;;;;;1.65;1.00;;;;;;;;;;5037856;28;20541;-67
2022/07/31 12:01:26;;;;;;;3.15;1.40;;;;;;;;;;5054365;28;20044;-67
2022/07/31 12:03:53;;;;;;;1.67;1.58;;;;;;;;;;5038076;28;20135;-67
2022/07/31 12:06:20;;;;;;;3.40;1.70;;;;;;;;;;5071981;28;20430;-68
2022/07/31 12:08:47;;;;;;;1.77;1.10;;;;;;;;;;5071780;28;20052;-66
2022/07/31 12:11:16;;;;;;;3.13;1.20;;;;;;;;;;5021486;28;20049;-67
2022/07/31 12:13:47;;;;;;;2.72;1.23;;;;;;;;;;5037850;28;20048;-66
2022/07/31 12:16:15;;;;;;;2.08;1.45;;;;;;;;;;5054400;28;20054;-67
2022/07/31 12:18:49;;;;;;;1.85;1.05;;;;;;;;;;5036824;28;20049;-66
2022/07/31 12:21:17;;;;;;;2.90;1.75;;;;;;;;;;5053962;28;20495;-66
2022/07/31 12:23:49;;;;;;;3.13;1.45;;;;;;;;;;5037895;28;20048;-67
2022/07/31 12:26:27;;;;;;;1.65;1.55;;;;;;;;;;5054279;28;20071;-66
2022/07/31 12:29:07;;;;;;;4.65;1.65;;;;;;;;;;5037996;28;20063;-67
2022/07/31 12:31:44;;;;;;;6.07;1.60;;;;;;;;;;5038223;28;20051;-66
2022/07/31 12:34:17;;;;;;;2.85;1.40;;;;;;;;;;5054114;28;20063;-68
2022/07/31 12:36:44;;;;;;;1.23;1.00;;;;;;;;;;5053724;28;20060;-66
2022/07/31 12:39:10;;;;;;;1.63;1.30;;;;;;;;;;5053772;28;20048;-68
2022/07/31 12:41:41;;;;;;;1.85;1.38;;;;;;;;;;5053778;28;20048;-67
2022/07/31 12:44:09;;;;;;;1.48;1.10;;;;;;;;;;5054197;28;20430;-66
2022/07/31 12:46:40;;;;;;;2.50;1.15;;;;;;;;;;5038588;28;20139;-67
2022/07/31 12:49:07;;;;;;;1.83;1.33;;;;;;;;;;5071253;28;20407;-67
2022/07/31 12:51:34;;;;;;;3.20;1.23;;;;;;;;;;5071579;28;20051;-66
2022/07/31 12:54:16;;;;;;;2.92;1.70;;;;;;;;;;5040373;28;20403;-67
2022/07/31 12:56:43;;;;;;;1.27;1.17;;;;;;;;;;5053929;28;20056;-67
2022/07/31 12:59:10;;;;;;;3.70;1.75;;;;;;;;;;5037109;28;20058;-67
2022/07/31 13:01:37;;;;;;;2.33;1.30;;;;;;;;;;5071543;28;20048;-67
2022/07/31 13:04:05;;;;;;;1.25;1.15;;;;;;;;;;5037289;28;20128;-66
2022/07/31 13:06:43;;;;;;;3.83;1.90;;;;;;;;;;5071358;28;20049;-67
2022/07/31 13:09:10;;;;;;;3.08;1.40;;;;;;;;;;5053526;28;20052;-66
2022/07/31 13:11:37;;;;;;;2.47;1.75;;;;;;;;;;5071562;28;20522;-67
2022/07/31 13:14:17;;;;;;;1.38;1.27;;;;;;;;;;5071351;28;20570;-67
2022/07/31 13:16:44;;;;;;;1.98;1.50;;;;;;;;;;5053683;28;20048;-68
2022/07/31 13:19:11;;;;;;;1.83;1.38;;;;;;;;;;5052940;28;20053;-67
2022/07/31 13:21:38;;;;;;;1.40;1.30;;;;;;;;;;5053458;28;20138;-67
2022/07/31 13:24:18;;;;;;;3.70;1.33;;;;;;;;;;5055208;28;20051;-67
2022/07/31 13:26:46;;;;;;;1.42;1.00;;;;;;;;;;5070996;28;20048;-67
2022/07/31 13:29:12;;;;;;;3.03;1.23;;;;;;;;;;5053391;28;20078;-67
2022/07/31 13:31:39;;;;;;;2.28;1.40;;;;;;;;;;5055027;28;20049;-68
2022/07/31 13:34:06;;;;;;;1.38;1.27;;;;;;;;;;5074779;28;20052;-68
2022/07/31 13:36:33;;;;;;;1.08;0.95;;;;;;;;;;5057318;28;20414;-66
2022/07/31 13:39:08;;;;;;;2.92;1.40;;;;;;;;;;5057615;28;20423;-67
2022/07/31 13:41:35;;;;;;;1.35;0.80;;;;;;;;;;5074886;28;20048;-66
2022/07/31 13:44:05;;;;;;;2.00;1.33;;;;;;;;;;5057370;28;20052;-67
2022/07/31 13:46:32;;;;;;;2.97;1.45;;;;;;;;;;5074533;28;20080;-68
2022/07/31 13:48:59;;;;;;;2.70;1.50;;;;;;;;;;5074623;28;20053;-66
2022/07/31 13:51:28;;;;;;;1.23;1.08;;;;;;;;;;5057396;28;20418;-68
2022/07/31 13:53:55;;;;;;;1.75;0.90;;;;;;;;;;5056902;28;20044;-67
2022/07/31 13:56:22;;;;;;;2.03;1.25;;;;;;;;;;5056636;28;20052;-67
2022/07/31 13:59:09;;;;;;;1.55;1.10;;;;;;;;;;5074174;28;20052;-67
2022/07/31 14:01:37;;;;;;;2.10;1.00;;;;;;;;;;5074341;28;20106;-67
2022/07/31 14:04:24;;;;;;;1.98;1.23;;;;;;;;;;5074577;28;20052;-67
2022/07/31 14:06:53;;;;;;;3.30;1.85;;;;;;;;;;5074275;28;20049;-66
2022/07/31 14:09:20;;;;;;;2.35;1.25;;;;;;;;;;5056271;28;20063;-68
2022/07/31 14:11:47;;;;;;;3.03;1.58;;;;;;;;;;5074475;28;20044;-67
2022/07/31 14:14:13;;;;;;;2.83;1.92;;;;;;;;;;5074408;28;20048;-68
2022/07/31 14:16:49;;;;;;;1.63;1.48;;;;;;;;;;5057801;28;20128;-67
2022/07/31 14:19:15;;;;;;;1.48;1.15;;;;;;;;;;5055708;28;20136;-68
2022/07/31 14:21:42;;;;;;;1.52;0.98;;;;;;;;;;5074064;28;20055;-67
2022/07/31 14:24:23;;;;;;;1.20;1.10;;;;;;;;;;5074071;28;20048;-67
2022/07/31 14:26:49;;;;;;;1.80;1.17;;;;;;;;;;5074299;28;20045;-68
2022/07/31 14:29:16;;;;;;;2.88;1.52;;;;;;;;;;5039716;28;20060;-67
2022/07/31 14:31:43;;;;;;;1.30;1.20;;;;;;;;;;5056259;28;20047;-67
2022/07/31 14:34:09;;;;;;;2.97;1.88;;;;;;;;;;5056250;28;20055;-67
2022/07/31 14:36:36;;;;;;;3.03;1.58;;;;;;;;;;5073683;28;20063;-66
2022/07/31 14:39:03;;;;;;;1.65;1.50;;;;;;;;;;5073822;28;20052;-67
2022/07/31 14:41:29;;;;;;;1.85;1.75;;;;;;;;;;5073576;28;20044;-68
2022/07/31 14:43:56;;;;;;;1.45;1.30;;;;;;;;;;5073501;28;20045;-67
2022/07/31 14:46:23;;;;;;;1.38;1.27;;;;;;;;;;5074022;28;20060;-67
2022/07/31 14:48:50;;;;;;;2.03;1.30;;;;;;;;;;5073564;28;20083;-67
2022/07/31 14:51:17;;;;;;;2.00;1.50;;;;;;;;;;5055867;28;20049;-67
2022/07/31 14:53:45;;;;;;;1.45;1.13;;;;;;;;;;5039481;28;20049;-67
2022/07/31 14:56:11;;;;;;;1.45;1.10;;;;;;;;;;5073140;28;20055;-68